createdAt,value
2023-07-07T06:00:14.389Z,62.8
2023-07-07T06:05:16.738Z,60.6
2023-07-07T06:15:21.124Z,60.3
2023-07-07T06:20:23.258Z,60.4
2023-07-07T06:25:25.442Z,60.6
2023-07-07T06:30:27.749Z,60.7
2023-07-07T06:35:29.916Z,60.8
2023-07-07T06:40:32.077Z,60.9
2023-07-07T06:45:34.346Z,60.9
2023-07-07T06:50:36.592Z,61
2023-07-07T06:55:38.769Z,61.1
2023-07-07T07:00:41.001Z,61.3
2023-07-07T07:05:43.142Z,61.2
2023-07-07T07:10:45.369Z,61.1
2023-07-07T07:25:52.084Z,61.8
2023-07-07T07:30:54.319Z,61.8
2023-07-07T07:35:56.571Z,61.6
2023-07-07T07:40:59.094Z,61.1
2023-07-07T07:46:01.139Z,61.1
2023-07-07T07:51:03.459Z,61.2
2023-07-07T07:56:05.604Z,61
2023-07-07T08:01:07.804Z,60
2023-07-07T08:11:22.034Z,59.8
2023-07-07T08:16:24.232Z,59.7
2023-07-07T08:21:26.494Z,58.8
2023-07-07T08:26:28.962Z,58.4
2023-07-07T08:31:30.968Z,57.9
2023-07-07T08:36:33.170Z,57.9
2023-07-07T08:41:35.434Z,57.6
2023-07-07T08:51:39.984Z,57.6
2023-07-07T08:56:42.156Z,56.7
2023-07-07T09:01:44.577Z,56.1
2023-07-07T09:06:46.672Z,56.2
2023-07-07T09:09:38.328Z,54.8
2023-07-07T09:19:42.842Z,55.6
2023-07-07T09:20:20.789Z,55.8
2023-07-07T09:25:22.895Z,55.8
2023-07-07T09:30:25.355Z,55.5
2023-07-07T09:35:27.543Z,55.5
2023-07-07T09:40:29.670Z,55.7
2023-07-07T09:45:32.142Z,55.4
2023-07-07T09:50:34.449Z,55.5
2023-07-07T09:55:37.663Z,55.6
2023-07-07T10:00:44.376Z,56.1
2023-07-07T10:05:41.149Z,54.9
2023-07-07T10:15:45.692Z,54.8
2023-07-07T10:20:47.898Z,55.1
2023-07-07T10:25:50.018Z,55.3
2023-07-07T10:30:52.171Z,54.4
2023-07-07T10:35:54.348Z,53.6
2023-07-07T10:45:58.892Z,52.2
2023-07-07T10:51:01.630Z,52
2023-07-07T10:56:03.429Z,51.4
2023-07-07T11:01:05.668Z,51.6
2023-07-07T11:06:07.784Z,51.7
2023-07-07T11:11:09.916Z,50.4
2023-07-07T11:16:12.205Z,51.1
2023-07-07T11:21:14.396Z,49.5
2023-07-07T11:26:16.540Z,49.6
2023-07-07T11:31:18.877Z,50.2
2023-07-07T11:41:23.058Z,54
2023-07-07T11:46:25.401Z,49.7
2023-07-07T11:51:27.619Z,50.1
2023-07-07T11:56:29.766Z,50.7
2023-07-07T12:01:32.119Z,50
2023-07-07T12:11:36.495Z,50.2
2023-07-07T12:16:38.738Z,50.5
2023-07-07T12:21:40.945Z,50.5
2023-07-07T12:22:29.662Z,50.6
2023-07-07T12:27:32.012Z,50.8
2023-07-07T12:32:34.213Z,51.6
2023-07-07T12:42:39.772Z,49.8
2023-07-07T12:47:42.221Z,50.4
2023-07-07T12:52:44.500Z,50.1
2023-07-07T12:57:46.668Z,49.9
2023-07-07T13:02:49.197Z,50.1
2023-07-07T13:07:51.219Z,50
2023-07-07T13:12:53.346Z,49.9
2023-07-07T13:17:55.591Z,49.5
2023-07-07T13:22:57.958Z,48.9
2023-07-07T13:24:33.312Z,48.7
2023-07-07T13:29:35.479Z,48.6
2023-07-07T13:34:37.824Z,48.7
2023-07-07T13:39:40.013Z,48.4
2023-07-07T13:44:42.157Z,48.3
2023-07-07T13:49:44.326Z,48.7
2023-07-07T13:54:46.524Z,49.1
2023-07-07T13:59:48.801Z,49.1
2023-07-07T14:04:51.854Z,49.1
2023-07-07T14:09:53.192Z,49.2
2023-07-07T14:14:55.318Z,48.9
2023-07-07T14:19:57.476Z,48
2023-07-07T14:24:59.670Z,47.7
2023-07-07T14:30:02.069Z,48.5
2023-07-07T14:40:06.454Z,48.4
2023-07-07T14:45:08.757Z,47.7
2023-07-07T14:50:10.968Z,47
2023-07-07T14:55:13.135Z,46
2023-07-07T15:00:15.304Z,45.9
2023-07-07T15:10:19.931Z,46.1
2023-07-07T15:15:22.078Z,45.8
2023-07-07T15:20:24.256Z,46.1
2023-07-07T15:25:26.444Z,46.4
2023-07-07T15:30:28.779Z,46.5
2023-07-07T15:35:30.962Z,46.8
2023-07-07T15:40:33.280Z,47.6
2023-07-07T15:45:41.332Z,48.6
2023-07-07T15:50:37.605Z,48.7
2023-07-07T15:55:39.941Z,49
2023-07-07T16:05:44.449Z,49.3
2023-07-07T16:10:46.943Z,49.7
2023-07-07T16:15:49.149Z,50.8
2023-07-07T16:20:51.446Z,49.9
2023-07-07T16:25:53.812Z,49.4
2023-07-07T16:30:56.047Z,50.3
2023-07-07T16:35:58.330Z,49.7
2023-07-07T16:41:00.826Z,49.3
2023-07-07T16:46:02.905Z,48.8
2023-07-07T16:51:05.247Z,47.9
2023-07-07T16:56:07.447Z,46.1
2023-07-07T17:06:11.783Z,47.6
2023-07-07T17:11:13.980Z,48.7
2023-07-07T17:16:16.452Z,49.1
2023-07-07T17:21:18.593Z,49.9
2023-07-07T17:26:20.780Z,50.1
2023-07-07T17:31:24.920Z,50.8
2023-07-07T17:36:25.087Z,51.4
2023-07-07T17:41:27.394Z,52.3
2023-07-07T17:46:29.589Z,53.2
2023-07-07T17:51:31.845Z,53.8
2023-07-07T18:01:36.197Z,54.2
2023-07-07T18:06:38.339Z,54
2023-07-07T18:11:40.513Z,54.5
2023-07-07T18:16:42.918Z,54.9
2023-07-07T18:21:51.513Z,55.3
2023-07-07T18:26:47.203Z,56.3
2023-07-07T18:31:49.427Z,56.9
2023-07-07T18:36:51.604Z,57.6
2023-07-07T18:41:56.755Z,57.5
2023-07-07T18:46:58.986Z,58.1
2023-07-07T18:57:03.354Z,56.9
2023-07-07T19:02:05.640Z,57
2023-07-07T19:07:07.698Z,56.8
2023-07-07T19:12:10.109Z,56.9
2023-07-07T19:17:12.275Z,57
2023-07-07T19:27:16.849Z,57.8
2023-07-07T19:32:19.110Z,58.1
2023-07-07T19:37:21.154Z,58.8
2023-07-07T19:42:23.641Z,59
2023-07-07T19:47:26.846Z,58.8
2023-07-07T19:52:28.992Z,59.1
2023-07-07T19:57:31.250Z,58.9
2023-07-07T20:02:33.416Z,59.3
2023-07-07T20:07:35.548Z,59.5
2023-07-07T20:12:37.849Z,59.5
2023-07-07T20:22:42.150Z,60.8
2023-07-07T20:27:44.339Z,60.2
2023-07-07T20:32:46.531Z,60.2
2023-07-07T20:37:48.764Z,60
2023-07-07T20:42:50.971Z,59.6
2023-07-07T20:47:53.323Z,59.8
2023-07-07T20:52:55.448Z,59.7
2023-07-07T20:57:57.619Z,59.8
